Time;durP1;ratioP1;P1;durP2;ratioP2;P2;SDS_P1;SDS_P2;PMS_P1;PMS_P2;Temp;Humidity;BMP_temperature;BMP_pressure;BME280_temperature;BME280_humidity;BME280_pressure;Samples;Min_cycle;Max_cycle;Signal;HPM_P1;HPM_P2
2023/04/07 00:00:20;;;;;;;34.67;20.92;;;7.60;99.90;;;;;;5071702;28;20262;-62
2023/04/07 00:02:47;;;;;;;30.48;20.38;;;7.60;99.90;;;;;;5080874;28;20032;-63
2023/04/07 00:05:13;;;;;;;32.03;20.77;;;7.60;99.90;;;;;;5080525;28;20484;-63
2023/04/07 00:07:39;;;;;;;32.25;20.77;;;7.60;99.90;;;;;;5072152;28;20029;-63
2023/04/07 00:10:06;;;;;;;34.42;21.42;;;7.60;99.90;;;;;;5071110;28;20506;-63
2023/04/07 00:12:31;;;;;;;35.08;20.63;;;7.60;99.90;;;;;;5077246;28;20375;-63
2023/04/07 00:14:57;;;;;;;33.35;20.27;;;7.60;99.90;;;;;;5075762;28;20047;-63
2023/04/07 00:17:22;;;;;;;34.50;21.65;;;7.60;99.90;;;;;;5081622;28;20465;-63
2023/04/07 00:19:48;;;;;;;32.53;20.83;;;7.60;99.90;;;;;;5072265;28;20383;-63
2023/04/07 00:22:13;;;;;;;35.00;21.50;;;7.60;99.90;;;;;;5071765;28;20087;-63
2023/04/07 00:24:39;;;;;;;35.78;20.30;;;7.50;99.90;;;;;;5072526;28;20398;-63
2023/04/07 00:27:04;;;;;;;33.33;21.20;;;7.60;99.90;;;;;;5071406;28;20406;-63
2023/04/07 00:29:30;;;;;;;36.90;21.80;;;7.60;99.90;;;;;;5078620;28;20039;-62
2023/04/07 00:31:55;;;;;;;36.30;21.65;;;7.50;99.90;;;;;;5076152;28;20040;-63
2023/04/07 00:34:21;;;;;;;34.05;20.27;;;7.50;99.90;;;;;;5073526;28;20040;-63
2023/04/07 00:36:50;;;;;;;36.05;21.25;;;7.50;99.90;;;;;;5062478;28;20037;-63
2023/04/07 00:39:17;;;;;;;35.47;22.42;;;7.50;99.90;;;;;;5071238;28;20052;-63
2023/04/07 00:41:43;;;;;;;37.30;21.58;;;7.50;99.90;;;;;;5072134;28;20039;-63
2023/04/07 00:44:08;;;;;;;35.05;21.63;;;7.50;99.90;;;;;;5074732;28;20032;-63
2023/04/07 00:46:34;;;;;;;36.30;21.55;;;7.50;99.90;;;;;;5077573;28;20482;-63
2023/04/07 00:48:59;;;;;;;36.05;21.23;;;7.50;99.90;;;;;;5070589;28;20117;-63
2023/04/07 00:51:25;;;;;;;38.45;23.65;;;7.60;99.90;;;;;;5085206;28;20489;-63
2023/04/07 00:53:53;;;;;;;34.83;21.70;;;7.50;99.90;;;;;;5075415;28;20386;-64
2023/04/07 00:56:18;;;;;;;35.50;21.05;;;7.60;99.90;;;;;;5083956;28;20036;-63
2023/04/07 00:58:44;;;;;;;36.20;22.73;;;7.60;99.90;;;;;;5049421;28;20097;-63
2023/04/07 01:01:21;;;;;;;35.70;22.75;;;7.60;99.90;;;;;;5070044;28;20035;-64
2023/04/07 01:04:11;;;;;;;35.28;21.98;;;7.60;99.90;;;;;;5069327;28;20076;-64
2023/04/07 01:06:42;;;;;;;38.42;22.73;;;7.50;99.90;;;;;;5075653;28;20086;-64
2023/04/07 01:09:23;;;;;;;39.55;23.13;;;7.50;99.90;;;;;;5085056;28;20032;-64
2023/04/07 01:12:02;;;;;;;40.53;23.02;;;7.50;99.90;;;;;;5074416;28;20087;-64
2023/04/07 01:14:32;;;;;;;37.65;21.92;;;7.50;99.90;;;;;;5071843;28;20059;-64
2023/04/07 01:17:02;;;;;;;37.20;23.20;;;7.50;99.90;;;;;;5088122;28;20490;-64
2023/04/07 01:19:39;;;;;;;39.25;23.27;;;7.50;99.90;;;;;;5053511;28;20297;-64
2023/04/07 01:22:12;;;;;;;41.78;23.95;;;7.50;99.90;;;;;;5053366;28;20045;-64
2023/04/07 01:24:45;;;;;;;40.05;24.27;;;7.50;99.90;;;;;;5067294;28;20043;-64
2023/04/07 01:27:24;;;;;;;37.97;22.92;;;7.50;99.90;;;;;;5069431;28;20032;-64
2023/04/07 01:29:52;;;;;;;37.97;22.33;;;7.50;99.90;;;;;;5067706;28;20044;-64
2023/04/07 01:32:22;;;;;;;37.75;23.60;;;7.50;99.90;;;;;;5083535;22;20041;-62
2023/04/07 01:34:51;;;;;;;40.43;23.00;;;7.50;99.90;;;;;;5071475;28;20044;-62
2023/04/07 01:37:17;;;;;;;41.67;23.75;;;7.50;99.90;;;;;;5096428;28;20293;-61
2023/04/07 01:39:43;;;;;;;39.80;23.80;;;7.50;99.90;;;;;;5092379;28;20044;-62
2023/04/07 01:42:09;;;;;;;38.67;23.23;;;7.50;99.90;;;;;;5088548;28;20085;-62
2023/04/07 01:44:36;;;;;;;39.38;24.40;;;7.50;99.90;;;;;;5073810;28;20036;-61
2023/04/07 01:47:02;;;;;;;37.22;23.50;;;7.60;99.90;;;;;;5070048;28;20040;-62
2023/04/07 01:49:29;;;;;;;42.20;24.00;;;7.50;99.90;;;;;;5071963;28;20085;-61
2023/04/07 01:51:56;;;;;;;40.15;23.08;;;7.50;99.90;;;;;;5070542;28;20051;-62
2023/04/07 01:54:22;;;;;;;40.30;24.23;;;7.50;99.90;;;;;;5071021;28;20032;-62
2023/04/07 01:56:48;;;;;;;43.20;24.48;;;7.50;99.90;;;;;;5069924;28;20375;-61
2023/04/07 01:59:14;;;;;;;39.80;23.52;;;7.50;99.90;;;;;;5065818;28;20028;-62
2023/04/07 02:01:39;;;;;;;44.28;23.65;;;7.50;99.90;;;;;;5078232;28;20093;-62
2023/04/07 02:04:20;;;;;;;46.00;24.27;;;7.50;99.90;;;;;;5057646;28;20037;-62
2023/04/07 02:07:04;;;;;;;38.50;23.08;;;7.50;99.90;;;;;;5066095;28;20064;-62
2023/04/07 02:09:32;;;;;;;38.10;22.90;;;7.60;99.90;;;;;;5080220;28;20043;-62
2023/04/07 02:12:00;;;;;;;38.63;23.25;;;7.50;99.90;;;;;;5084352;28;20041;-62
2023/04/07 02:14:27;;;;;;;39.10;23.92;;;7.50;99.90;;;;;;5070038;28;20523;-62
2023/04/07 02:16:54;;;;;;;39.47;23.30;;;7.60;99.90;;;;;;5074585;28;20028;-62
2023/04/07 02:19:20;;;;;;;40.65;23.95;;;7.50;99.90;;;;;;5071546;28;20041;-62
2023/04/07 02:21:47;;;;;;;42.42;23.02;;;7.50;99.90;;;;;;5053246;28;20048;-62
2023/04/07 02:24:12;;;;;;;38.95;22.75;;;7.50;99.90;;;;;;5054514;28;20040;-60
2023/04/07 02:26:38;;;;;;;40.30;23.67;;;7.50;99.90;;;;;;5051190;28;20513;-60
2023/04/07 02:29:04;;;;;;;39.75;23.08;;;7.50;99.90;;;;;;5070763;28;20043;-60
2023/04/07 02:31:30;;;;;;;39.65;22.95;;;7.50;99.90;;;;;;5070572;28;20115;-60
2023/04/07 02:33:55;;;;;;;43.95;23.42;;;7.50;99.90;;;;;;5052822;28;20049;-62
2023/04/07 02:36:21;;;;;;;42.83;23.33;;;7.60;99.90;;;;;;5069027;28;20043;-61
2023/04/07 02:38:46;;;;;;;36.92;21.55;;;7.50;99.90;;;;;;5069995;28;20051;-61
2023/04/07 02:41:12;;;;;;;42.78;24.33;;;7.50;99.90;;;;;;5051193;28;20075;-61
2023/04/07 02:43:37;;;;;;;40.38;23.83;;;7.60;99.90;;;;;;5079668;28;20025;-61
2023/04/07 02:46:03;;;;;;;37.47;23.27;;;7.50;99.90;;;;;;5067920;28;20098;-61
2023/04/07 02:48:29;;;;;;;39.88;23.52;;;7.60;99.90;;;;;;5064205;28;20033;-61
2023/04/07 02:50:54;;;;;;;38.42;23.30;;;7.50;99.90;;;;;;5073280;28;20111;-61
2023/04/07 02:53:20;;;;;;;38.17;22.73;;;7.50;99.90;;;;;;5073778;28;20029;-62
2023/04/07 02:55:46;;;;;;;38.25;23.48;;;7.50;99.90;;;;;;5082259;28;20440;-61
2023/04/07 02:58:11;;;;;;;40.00;22.88;;;7.50;99.90;;;;;;5081822;28;20036;-61
2023/04/07 03:00:37;;;;;;;41.60;23.20;;;7.50;99.90;;;;;;5072217;28;20040;-61
2023/04/07 03:03:02;;;;;;;41.10;23.63;;;7.50;99.90;;;;;;5056443;28;20066;-61
2023/04/07 03:05:28;;;;;;;43.17;23.70;;;7.50;99.90;;;;;;5054917;28;20033;-61
2023/04/07 03:07:53;;;;;;;41.00;23.77;;;7.50;99.90;;;;;;5058414;28;20405;-61
2023/04/07 03:10:19;;;;;;;38.40;23.25;;;7.50;99.90;;;;;;5071990;28;20462;-61
2023/04/07 03:12:44;;;;;;;41.70;23.70;;;7.50;99.90;;;;;;5064319;28;20047;-61
2023/04/07 03:15:10;;;;;;;40.30;23.52;;;7.50;99.90;;;;;;5064020;28;20043;-61
2023/04/07 03:17:36;;;;;;;39.10;23.33;;;7.50;99.90;;;;;;5064760;28;20111;-61
2023/04/07 03:20:02;;;;;;;37.58;22.38;;;7.50;99.90;;;;;;5074343;28;20043;-61
2023/04/07 03:22:27;;;;;;;43.38;24.75;;;7.50;99.90;;;;;;5056803;28;20036;-61
2023/04/07 03:24:53;;;;;;;38.85;23.02;;;7.50;99.90;;;;;;5075729;28;20040;-61
2023/04/07 03:27:19;;;;;;;42.28;22.98;;;7.50;99.90;;;;;;5076141;28;20042;-61
2023/04/07 03:29:45;;;;;;;44.70;23.92;;;7.50;99.90;;;;;;5072110;28;20048;-61
2023/04/07 03:32:11;;;;;;;38.85;23.13;;;7.50;99.90;;;;;;5046832;28;20047;-61
2023/04/07 03:34:37;;;;;;;41.30;22.48;;;7.50;99.90;;;;;;5074300;28;20032;-62
2023/04/07 03:37:02;;;;;;;36.95;22.15;;;7.50;99.90;;;;;;5072238;28;20040;-61
2023/04/07 03:39:28;;;;;;;37.80;22.48;;;7.50;99.90;;;;;;5072465;28;20032;-61
2023/04/07 03:41:55;;;;;;;34.00;20.95;;;7.50;99.90;;;;;;5068585;28;20032;-62
2023/04/07 03:44:20;;;;;;;30.23;19.63;;;7.50;99.90;;;;;;5071593;28;20039;-61
2023/04/07 03:46:47;;;;;;;36.92;21.40;;;7.50;99.90;;;;;;5051983;28;20402;-61
2023/04/07 03:49:13;;;;;;;33.97;20.38;;;7.40;99.90;;;;;;5070316;28;20048;-62
2023/04/07 03:51:38;;;;;;;33.88;19.75;;;7.50;99.90;;;;;;5068128;28;20046;-62
2023/04/07 03:54:04;;;;;;;38.55;21.05;;;7.50;99.90;;;;;;5064535;28;20040;-61
2023/04/07 03:56:30;;;;;;;34.90;20.88;;;7.50;99.90;;;;;;5078353;28;20028;-61
2023/04/07 03:58:56;;;;;;;36.85;22.13;;;7.40;99.90;;;;;;5065262;28;20041;-61
2023/04/07 04:01:22;;;;;;;37.25;21.65;;;7.40;99.90;;;;;;5070641;28;20447;-61
2023/04/07 04:03:48;;;;;;;38.40;21.92;;;7.40;99.90;;;;;;5071798;28;20032;-61
2023/04/07 04:06:14;;;;;;;36.30;22.23;;;7.40;99.90;;;;;;5043544;28;20067;-61
2023/04/07 04:08:39;;;;;;;35.88;21.10;;;7.40;99.90;;;;;;5073119;28;20129;-62
2023/04/07 04:11:05;;;;;;;36.78;22.27;;;7.40;99.90;;;;;;5073500;28;20406;-61
2023/04/07 04:13:31;;;;;;;38.28;22.75;;;7.40;99.90;;;;;;5073485;28;20037;-61
2023/04/07 04:15:56;;;;;;;36.80;22.75;;;7.40;99.90;;;;;;5073221;28;20037;-61
2023/04/07 04:18:22;;;;;;;38.22;21.70;;;7.40;99.90;;;;;;5070308;28;20047;-62
2023/04/07 04:20:48;;;;;;;40.05;23.27;;;7.40;99.90;;;;;;5090054;28;20114;-62
2023/04/07 04:23:14;;;;;;;41.15;22.73;;;7.40;99.90;;;;;;5092692;28;20413;-61
2023/04/07 04:25:39;;;;;;;35.45;21.27;;;7.40;99.90;;;;;;5093843;28;20036;-61
2023/04/07 04:28:05;;;;;;;38.67;20.98;;;7.40;99.90;;;;;;5089720;28;20456;-62
2023/04/07 04:30:31;;;;;;;33.95;21.00;;;7.40;99.90;;;;;;5093477;28;20111;-61
2023/04/07 04:32:57;;;;;;;34.40;20.58;;;7.30;99.90;;;;;;5073281;28;20045;-61
2023/04/07 04:35:22;;;;;;;33.97;19.98;;;7.30;99.90;;;;;;5078231;28;20482;-61
2023/04/07 04:37:48;;;;;;;34.75;20.25;;;7.30;99.90;;;;;;5064386;28;20036;-61
2023/04/07 04:40:13;;;;;;;32.67;20.33;;;7.30;99.90;;;;;;5071448;28;20029;-61
2023/04/07 04:42:39;;;;;;;35.10;20.92;;;7.30;99.90;;;;;;5070630;28;20474;-61
2023/04/07 04:45:06;;;;;;;34.25;20.02;;;7.30;99.90;;;;;;5067830;28;20383;-61
2023/04/07 04:47:31;;;;;;;37.53;22.58;;;7.30;99.90;;;;;;5064717;28;20516;-61
2023/04/07 04:49:57;;;;;;;37.10;21.77;;;7.30;99.90;;;;;;5073173;28;20124;-60
2023/04/07 04:52:22;;;;;;;39.03;22.92;;;7.30;99.90;;;;;;5047651;28;20085;-60
2023/04/07 04:54:48;;;;;;;39.53;23.63;;;7.40;99.90;;;;;;5081175;28;20113;-61
2023/04/07 04:57:14;;;;;;;71.20;28.95;;;7.40;99.90;;;;;;5074732;28;20124;-61
2023/04/07 04:59:41;;;;;;;62.47;26.77;;;7.40;99.90;;;;;;5070282;28;20044;-61
2023/04/07 05:02:07;;;;;;;158.10;33.05;;;7.40;99.90;;;;;;5074071;28;20070;-61
2023/04/07 05:04:32;;;;;;;64.22;28.95;;;7.40;99.90;;;;;;5059845;28;20402;-61
2023/04/07 05:06:58;;;;;;;56.30;25.27;;;7.40;99.90;;;;;;5072279;28;20040;-61
2023/04/07 05:09:23;;;;;;;42.83;25.27;;;7.40;99.90;;;;;;5068162;28;20413;-60
2023/04/07 05:11:49;;;;;;;45.75;24.75;;;7.40;99.90;;;;;;5083143;28;20032;-61
2023/04/07 05:14:14;;;;;;;45.33;25.05;;;7.40;99.90;;;;;;5068953;28;20115;-61
2023/04/07 05:16:40;;;;;;;52.85;26.08;;;7.40;99.90;;;;;;5064673;28;20101;-61
2023/04/07 05:19:05;;;;;;;48.00;26.42;;;7.40;99.90;;;;;;5058813;28;20040;-60
2023/04/07 05:21:31;;;;;;;50.38;26.92;;;7.40;99.90;;;;;;5063126;28;20043;-61
2023/04/07 05:23:56;;;;;;;48.30;25.42;;;7.40;99.90;;;;;;5070009;28;20037;-61
2023/04/07 05:26:22;;;;;;;47.05;25.83;;;7.40;99.90;;;;;;5070035;28;20123;-61
2023/04/07 05:28:48;;;;;;;45.75;24.40;;;7.40;99.90;;;;;;5070025;28;20036;-61
2023/04/07 05:31:13;;;;;;;43.33;24.08;;;7.40;99.90;;;;;;5060153;28;20071;-61
2023/04/07 05:33:39;;;;;;;38.42;21.95;;;7.30;99.90;;;;;;5073691;28;20406;-61
2023/04/07 05:36:05;;;;;;;41.67;23.60;;;7.30;99.90;;;;;;5087921;28;20036;-61
2023/04/07 05:38:30;;;;;;;38.30;22.55;;;7.30;99.90;;;;;;5091554;28;20110;-61
2023/04/07 05:40:56;;;;;;;39.92;22.42;;;7.40;99.90;;;;;;5092182;28;20039;-61
2023/04/07 05:43:21;;;;;;;37.90;21.73;;;7.40;99.90;;;;;;5069832;28;20109;-61
2023/04/07 05:45:47;;;;;;;38.90;20.70;;;7.40;99.90;;;;;;5047325;28;20486;-60
2023/04/07 05:48:12;;;;;;;34.00;20.25;;;7.40;99.90;;;;;;5069523;28;20032;-61
2023/04/07 05:50:38;;;;;;;35.20;20.73;;;7.40;99.90;;;;;;5066677;28;20081;-60
2023/04/07 05:53:03;;;;;;;35.30;20.27;;;7.40;99.90;;;;;;5067131;28;20059;-61
2023/04/07 05:55:30;;;;;;;36.40;20.98;;;7.40;99.90;;;;;;5070121;28;20123;-60
2023/04/07 05:57:55;;;;;;;36.40;21.25;;;7.40;99.90;;;;;;5068355;28;20044;-60
2023/04/07 06:00:21;;;;;;;33.45;20.95;;;7.40;99.90;;;;;;5066852;28;20044;-60
2023/04/07 06:02:46;;;;;;;33.15;19.83;;;7.40;99.90;;;;;;5068745;28;20040;-60
2023/04/07 06:05:12;;;;;;;32.33;19.85;;;7.40;99.90;;;;;;5062092;28;20463;-61
2023/04/07 06:07:37;;;;;;;36.60;21.13;;;7.50;99.90;;;;;;5071822;28;20529;-60
2023/04/07 06:10:03;;;;;;;34.72;20.75;;;7.40;99.90;;;;;;5067787;28;20045;-61
2023/04/07 06:12:29;;;;;;;33.80;20.15;;;7.50;99.90;;;;;;5049154;28;20071;-61
2023/04/07 06:14:55;;;;;;;35.03;20.58;;;7.50;99.90;;;;;;5067541;28;20086;-61
2023/04/07 06:17:21;;;;;;;35.67;21.25;;;7.40;99.90;;;;;;5069493;28;20040;-61
2023/04/07 06:19:47;;;;;;;34.00;21.25;;;7.50;99.90;;;;;;5070443;28;20101;-61
2023/04/07 06:22:12;;;;;;;34.78;20.95;;;7.50;99.90;;;;;;5065750;28;20154;-61
2023/04/07 06:24:38;;;;;;;37.85;21.70;;;7.50;99.90;;;;;;5070113;28;20029;-61
2023/04/07 06:27:04;;;;;;;33.88;20.98;;;7.50;99.90;;;;;;5057135;28;20044;-61
2023/04/07 06:29:31;;;;;;;34.17;20.90;;;7.50;99.90;;;;;;5080330;28;20028;-61
2023/04/07 06:31:57;;;;;;;36.13;22.35;;;7.60;99.90;;;;;;5087191;28;20040;-61
2023/04/07 06:34:22;;;;;;;35.53;20.45;;;7.60;99.90;;;;;;5075615;28;20031;-61
2023/04/07 06:36:48;;;;;;;36.65;21.00;;;7.60;99.90;;;;;;5080442;28;20117;-61
2023/04/07 06:39:13;;;;;;;32.80;20.45;;;7.60;99.90;;;;;;5074687;28;20501;-61
2023/04/07 06:41:41;;;;;;;32.00;20.05;;;7.70;99.90;;;;;;5073123;28;20033;-61
2023/04/07 06:44:08;;;;;;;30.05;19.02;;;7.60;99.90;;;;;;5076674;28;20047;-61
2023/04/07 06:46:34;;;;;;;31.70;20.00;;;7.60;99.90;;;;;;5045779;28;20071;-61
2023/04/07 06:49:00;;;;;;;33.53;19.77;;;7.60;99.90;;;;;;5072773;28;20083;-61
2023/04/07 06:51:25;;;;;;;34.97;20.70;;;7.70;99.90;;;;;;5073494;28;20032;-62
2023/04/07 06:53:51;;;;;;;33.30;20.25;;;7.70;99.90;;;;;;5073552;28;20116;-61
2023/04/07 06:56:16;;;;;;;32.28;20.10;;;7.70;99.90;;;;;;5075057;28;20076;-62
2023/04/07 06:58:42;;;;;;;37.25;20.33;;;7.80;99.90;;;;;;5071940;28;20119;-62
2023/04/07 07:01:07;;;;;;;34.03;20.60;;;7.80;99.90;;;;;;5073128;28;20060;-62
2023/04/07 07:03:33;;;;;;;30.63;18.98;;;7.80;99.90;;;;;;5074640;28;20107;-61
2023/04/07 07:05:59;;;;;;;34.17;19.35;;;7.80;99.90;;;;;;5072332;28;20024;-61
2023/04/07 07:08:25;;;;;;;31.08;18.85;;;7.80;99.90;;;;;;5073017;28;20471;-62
2023/04/07 07:10:51;;;;;;;30.77;18.55;;;7.80;99.90;;;;;;5072064;28;20079;-62
2023/04/07 07:13:18;;;;;;;31.10;19.15;;;7.90;99.90;;;;;;5037488;28;20060;-62
2023/04/07 07:15:44;;;;;;;31.02;17.75;;;7.90;99.90;;;;;;5071221;28;20033;-62
2023/04/07 07:18:11;;;;;;;31.40;17.98;;;7.90;99.90;;;;;;5066589;28;20474;-61
2023/04/07 07:20:37;;;;;;;28.73;18.33;;;7.90;99.90;;;;;;5052790;28;20056;-62
2023/04/07 07:23:03;;;;;;;32.83;19.27;;;7.90;99.90;;;;;;5070630;28;20044;-61
2023/04/07 07:25:28;;;;;;;30.63;18.88;;;8.00;99.90;;;;;;5070388;28;20149;-62
2023/04/07 07:27:54;;;;;;;28.42;18.67;;;8.00;99.90;;;;;;5072188;28;20505;-62
2023/04/07 07:30:21;;;;;;;29.30;18.23;;;8.00;99.90;;;;;;5069975;28;20035;-61
2023/04/07 07:32:46;;;;;;;30.48;18.45;;;8.00;99.90;;;;;;5069220;28;20037;-61
2023/04/07 07:35:12;;;;;;;30.02;18.52;;;8.10;99.90;;;;;;5071543;28;20032;-61
2023/04/07 07:37:38;;;;;;;26.85;17.30;;;8.10;99.90;;;;;;5072152;28;20479;-61
2023/04/07 07:40:04;;;;;;;27.65;18.08;;;8.20;99.90;;;;;;5085332;28;20044;-62
2023/04/07 07:42:30;;;;;;;29.48;17.83;;;8.20;99.90;;;;;;5084278;28;20036;-61
2023/04/07 07:44:56;;;;;;;26.45;17.52;;;8.20;99.90;;;;;;5064947;28;20028;-61
2023/04/07 07:47:21;;;;;;;27.45;16.88;;;8.30;99.90;;;;;;5041236;28;20170;-61
2023/04/07 07:49:47;;;;;;;28.60;17.10;;;8.40;99.90;;;;;;5071344;28;20149;-61
2023/04/07 07:52:13;;;;;;;26.95;17.30;;;8.40;99.90;;;;;;5064867;28;20033;-61
2023/04/07 07:54:39;;;;;;;24.33;16.20;;;8.50;99.90;;;;;;5069319;28;20654;-61
2023/04/07 07:57:04;;;;;;;24.52;16.65;;;8.50;99.90;;;;;;5070670;28;20044;-61
2023/04/07 07:59:30;;;;;;;26.05;17.80;;;8.50;99.90;;;;;;5074514;28;20028;-61
2023/04/07 08:01:57;;;;;;;27.00;17.73;;;8.50;99.90;;;;;;5051141;28;20044;-62
2023/04/07 08:04:22;;;;;;;31.25;19.88;;;8.50;99.90;;;;;;5065698;28;20510;-61
2023/04/07 08:06:49;;;;;;;29.40;19.15;;;8.60;99.90;;;;;;5054062;28;20048;-61
2023/04/07 08:09:15;;;;;;;29.25;18.83;;;8.60;99.90;;;;;;5081317;28;20047;-61
2023/04/07 08:11:41;;;;;;;29.38;19.60;;;8.60;99.90;;;;;;5072308;28;20119;-61
2023/04/07 08:14:07;;;;;;;30.45;20.80;;;8.60;99.90;;;;;;5044937;28;20545;-62
2023/04/07 08:16:32;;;;;;;30.23;20.35;;;8.70;99.90;;;;;;5048122;28;20513;-62
2023/04/07 08:18:58;;;;;;;27.88;19.23;;;8.70;99.90;;;;;;5054150;28;20072;-61
2023/04/07 08:21:23;;;;;;;28.40;20.00;;;8.70;99.90;;;;;;5065175;28;20039;-61
2023/04/07 08:23:49;;;;;;;30.15;20.50;;;8.70;99.90;;;;;;5074906;28;20086;-60
2023/04/07 08:26:14;;;;;;;31.48;20.88;;;8.70;99.90;;;;;;5062154;28;20036;-60
2023/04/07 08:28:40;;;;;;;33.38;20.90;;;8.70;99.90;;;;;;5068904;28;20056;-61
2023/04/07 08:31:06;;;;;;;30.95;21.83;;;8.70;99.90;;;;;;5069908;28;20037;-60
2023/04/07 08:33:32;;;;;;;30.83;20.98;;;8.80;99.90;;;;;;5053093;28;20051;-61
2023/04/07 08:35:57;;;;;;;32.55;21.90;;;8.80;99.90;;;;;;5084149;28;20033;-61
2023/04/07 08:38:23;;;;;;;30.52;20.40;;;8.90;99.90;;;;;;5083996;28;20163;-61
2023/04/07 08:40:57;;;;;;;32.58;22.45;;;8.90;99.90;;;;;;5070901;28;20486;-61
2023/04/07 08:43:24;;;;;;;33.35;21.42;;;8.90;99.90;;;;;;5066273;28;20071;-60
2023/04/07 08:45:52;;;;;;;30.15;20.13;;;8.80;99.90;;;;;;5070125;28;20047;-60
2023/04/07 08:48:20;;;;;;;50.83;21.50;;;8.80;99.90;;;;;;5069688;28;20504;-60
2023/04/07 08:50:48;;;;;;;39.13;21.08;;;8.80;99.90;;;;;;5075851;28;20509;-61
2023/04/07 08:53:22;;;;;;;50.05;21.17;;;8.80;99.90;;;;;;5068755;28;20095;-61
2023/04/07 08:55:48;;;;;;;31.65;21.50;;;8.80;99.90;;;;;;5073138;28;20064;-61
2023/04/07 08:58:15;;;;;;;31.70;21.55;;;8.80;99.90;;;;;;5064243;28;20056;-61
2023/04/07 09:00:44;;;;;;;40.03;24.77;;;8.80;99.90;;;;;;5069369;28;20261;-61
2023/04/07 09:03:10;;;;;;;38.67;25.45;;;8.80;99.90;;;;;;5066020;28;20028;-60
2023/04/07 09:05:37;;;;;;;41.50;26.75;;;8.80;99.90;;;;;;5069082;28;20406;-61
2023/04/07 09:08:03;;;;;;;38.47;24.75;;;8.90;99.90;;;;;;5068067;28;20443;-61
2023/04/07 09:10:29;;;;;;;39.13;25.63;;;8.90;99.90;;;;;;5058866;28;20071;-61
2023/04/07 09:12:56;;;;;;;35.75;22.85;;;8.90;99.90;;;;;;5070792;28;20033;-61
2023/04/07 09:15:22;;;;;;;33.08;22.25;;;8.90;99.90;;;;;;5053183;28;20576;-61
2023/04/07 09:17:48;;;;;;;34.05;21.52;;;8.90;99.90;;;;;;5067873;28;20128;-61
2023/04/07 09:20:13;;;;;;;32.45;21.23;;;9.00;99.90;;;;;;5072242;28;20093;-61
2023/04/07 09:22:41;;;;;;;29.90;20.88;;;9.00;99.90;;;;;;5053610;28;20051;-61
2023/04/07 09:25:28;;;;;;;29.20;18.70;;;9.10;99.90;;;;;;5069814;28;20460;-61
2023/04/07 09:28:01;;;;;;;22.23;15.30;;;9.10;99.90;;;;;;5059862;28;20045;-61
2023/04/07 09:30:32;;;;;;;22.13;15.10;;;9.00;99.90;;;;;;5061555;28;20043;-61
2023/04/07 09:32:59;;;;;;;18.35;12.80;;;9.00;99.90;;;;;;5075211;28;20041;-61
2023/04/07 09:35:27;;;;;;;16.50;12.07;;;9.00;99.90;;;;;;5069139;28;20040;-62
2023/04/07 09:38:02;;;;;;;17.30;10.60;;;9.00;99.90;;;;;;5067889;28;20047;-62
2023/04/07 09:40:28;;;;;;;12.25;8.60;;;9.10;99.90;;;;;;5063139;28;20071;-62
2023/04/07 09:42:53;;;;;;;11.38;8.30;;;9.10;99.90;;;;;;5073710;28;20506;-62
2023/04/07 09:45:24;;;;;;;11.25;7.97;;;9.10;99.90;;;;;;5078610;28;20040;-61
2023/04/07 09:47:50;;;;;;;10.93;8.32;;;9.20;99.90;;;;;;5063524;28;20041;-61
2023/04/07 09:50:36;;;;;;;11.70;8.13;;;9.30;99.90;;;;;;5075512;28;20075;-61
2023/04/07 09:53:03;;;;;;;9.68;7.32;;;9.40;99.90;;;;;;5062392;28;20115;-61
2023/04/07 09:55:30;;;;;;;9.45;7.25;;;9.50;99.90;;;;;;5070717;28;20032;-61
2023/04/07 09:57:55;;;;;;;11.27;8.23;;;9.60;99.90;;;;;;5081715;28;20087;-61
2023/04/07 10:00:21;;;;;;;11.30;7.65;;;9.70;99.90;;;;;;5065719;28;20068;-60
2023/04/07 10:02:48;;;;;;;10.27;7.82;;;9.80;99.90;;;;;;5065934;28;20040;-61
2023/04/07 10:05:14;;;;;;;11.45;8.00;;;9.80;99.90;;;;;;5079246;28;20040;-61
2023/04/07 10:07:39;;;;;;;12.70;8.50;;;9.80;99.90;;;;;;5070437;28;20036;-61
2023/04/07 10:10:07;;;;;;;12.27;8.40;;;9.80;99.90;;;;;;5069810;28;20036;-61
2023/04/07 10:12:35;;;;;;;9.80;7.35;;;9.90;99.90;;;;;;5070947;28;20402;-61
2023/04/07 10:15:01;;;;;;;7.55;6.15;;;9.80;99.90;;;;;;5072661;28;20086;-61
2023/04/07 10:17:27;;;;;;;10.52;7.20;;;9.80;99.90;;;;;;5061271;28;20041;-61
2023/04/07 10:19:54;;;;;;;10.25;7.10;;;9.80;99.90;;;;;;5053867;28;20041;-61
2023/04/07 10:22:21;;;;;;;8.82;6.43;;;9.80;99.90;;;;;;5070711;28;20040;-61
2023/04/07 10:25:08;;;;;;;8.85;6.70;;;9.80;99.90;;;;;;5035094;28;20033;-62
2023/04/07 10:28:03;;;;;;;8.88;6.70;;;9.90;99.90;;;;;;5080490;28;20123;-61
2023/04/07 10:30:31;;;;;;;10.13;7.43;;;10.00;99.90;;;;;;5079433;28;20048;-61
2023/04/07 10:32:57;;;;;;;9.05;6.72;;;10.10;99.90;;;;;;5069339;28;20098;-61
2023/04/07 10:35:23;;;;;;;10.02;7.22;;;10.10;99.90;;;;;;5069370;28;20029;-61
2023/04/07 10:38:09;;;;;;;9.63;6.78;;;10.20;99.90;;;;;;5051614;28;20032;-61
2023/04/07 10:40:35;;;;;;;10.18;7.00;;;10.30;99.90;;;;;;5069942;28;20383;-61
2023/04/07 10:43:02;;;;;;;8.48;6.60;;;10.30;99.90;;;;;;5069758;28;20036;-61
2023/04/07 10:45:47;;;;;;;10.88;7.32;;;10.20;99.90;;;;;;5069095;28;20124;-60
2023/04/07 10:48:14;;;;;;;11.05;8.02;;;10.20;99.90;;;;;;5059136;28;20041;-61
2023/04/07 10:50:41;;;;;;;12.13;7.97;;;10.00;99.90;;;;;;5058958;28;20117;-61
2023/04/07 10:53:13;;;;;;;13.70;9.10;;;9.90;99.90;;;;;;5077974;28;20492;-61
2023/04/07 10:55:43;;;;;;;10.35;8.32;;;9.80;99.90;;;;;;5069622;28;20115;-61
2023/04/07 10:58:28;;;;;;;12.13;8.98;;;9.70;99.90;;;;;;5050882;28;20060;-61
2023/04/07 11:00:59;;;;;;;11.45;8.55;;;9.70;99.90;;;;;;5069475;28;20049;-61
2023/04/07 11:03:47;;;;;;;12.77;9.40;;;9.60;99.90;;;;;;5069484;28;20501;-61
2023/04/07 11:06:13;;;;;;;11.80;8.55;;;9.60;99.90;;;;;;5054931;28;20051;-61
2023/04/07 11:08:40;;;;;;;11.80;8.88;;;9.60;99.90;;;;;;5065605;28;20028;-61
2023/04/07 11:11:10;;;;;;;10.30;7.78;;;9.60;99.90;;;;;;5070314;28;20089;-61
2023/04/07 11:13:49;;;;;;;11.82;8.20;;;9.60;99.90;;;;;;5085879;28;20024;-61
2023/04/07 11:16:17;;;;;;;9.73;7.30;;;9.70;99.90;;;;;;5054667;28;20505;-61
2023/04/07 11:18:43;;;;;;;10.13;7.30;;;9.60;99.90;;;;;;5071494;28;20055;-61
2023/04/07 11:21:09;;;;;;;10.48;7.15;;;9.60;99.90;;;;;;5073588;28;20034;-61
2023/04/07 11:23:38;;;;;;;10.25;6.93;;;9.60;99.90;;;;;;5061196;28;20044;-61
2023/04/07 11:26:04;;;;;;;10.63;7.15;;;9.60;99.90;;;;;;5072751;28;20041;-61
2023/04/07 11:28:30;;;;;;;9.27;7.07;;;9.60;99.90;;;;;;5066977;28;20078;-62
2023/04/07 11:30:57;;;;;;;11.23;7.47;;;9.60;99.90;;;;;;5060195;28;20045;-61
2023/04/07 11:33:27;;;;;;;12.50;8.38;;;9.60;99.90;;;;;;5068202;28;20514;-61
2023/04/07 11:36:00;;;;;;;10.30;7.47;;;9.60;99.90;;;;;;5067234;28;20036;-61
2023/04/07 11:38:35;;;;;;;11.35;7.88;;;9.60;99.90;;;;;;5072770;28;20616;-61
2023/04/07 11:41:10;;;;;;;11.02;8.30;;;9.70;99.90;;;;;;5085771;28;20071;-61
2023/04/07 11:43:36;;;;;;;11.60;8.65;;;9.70;99.90;;;;;;5068370;28;20029;-61
2023/04/07 11:46:03;;;;;;;11.70;8.65;;;9.70;99.90;;;;;;5074718;28;20513;-61
2023/04/07 11:48:31;;;;;;;12.65;8.68;;;9.70;99.90;;;;;;5084519;28;20032;-61
2023/04/07 11:50:58;;;;;;;12.63;8.95;;;9.80;99.90;;;;;;5071595;28;20074;-61
2023/04/07 11:53:33;;;;;;;13.25;9.20;;;9.90;99.90;;;;;;5078395;28;20492;-61
2023/04/07 11:56:04;;;;;;;13.85;9.07;;;9.90;99.90;;;;;;5071626;28;20086;-61
2023/04/07 11:58:30;;;;;;;12.68;8.18;;;9.80;99.90;;;;;;5073869;28;20028;-61
2023/04/07 12:01:03;;;;;;;11.65;8.95;;;9.80;99.90;;;;;;5070967;28;20036;-61
2023/04/07 12:03:29;;;;;;;11.07;8.15;;;9.80;99.90;;;;;;5061353;28;20032;-61
2023/04/07 12:05:55;;;;;;;12.40;8.40;;;9.80;99.90;;;;;;5070483;28;20213;-61
2023/04/07 12:08:21;;;;;;;12.43;8.73;;;9.80;99.90;;;;;;5070861;28;20044;-61
2023/04/07 12:10:47;;;;;;;12.13;8.07;;;9.80;99.90;;;;;;5068349;28;20044;-61
2023/04/07 12:13:13;;;;;;;11.43;8.18;;;9.90;99.90;;;;;;5066416;28;20034;-62
2023/04/07 12:15:39;;;;;;;11.00;8.35;;;9.80;99.90;;;;;;5073086;28;20425;-61
2023/04/07 12:18:05;;;;;;;11.73;8.27;;;9.80;99.90;;;;;;5070036;28;20159;-61
2023/04/07 12:20:31;;;;;;;10.32;8.02;;;9.80;99.90;;;;;;5052590;28;20041;-61
2023/04/07 12:22:58;;;;;;;11.25;8.10;;;9.80;99.90;;;;;;5070609;28;20452;-61
2023/04/07 12:25:25;;;;;;;11.65;8.52;;;9.90;99.90;;;;;;5072946;28;20036;-62
2023/04/07 12:27:50;;;;;;;11.52;7.80;;;9.90;99.90;;;;;;5072726;28;20044;-61
2023/04/07 12:30:16;;;;;;;12.05;8.38;;;10.00;99.90;;;;;;5075912;28;20390;-61
2023/04/07 12:32:41;;;;;;;11.25;8.27;;;10.00;99.90;;;;;;5083876;28;20031;-61
2023/04/07 12:35:07;;;;;;;12.95;8.38;;;10.00;99.90;;;;;;5067318;28;20060;-61
2023/04/07 12:37:32;;;;;;;11.00;8.38;;;10.10;99.90;;;;;;5067019;28;20029;-61